Airport View

Enter AWOS ICAO identifier for current METAR.

ex. KFNL

KFFZ 212254Z AUTO 00000KT 10SM CLR 33/00 A2983 RMK AO2 SLP075 T03280000

21 Sep 2019 23:26

Other Area AWOS: KIWA - KCHD - KSDL - KPHX

TAF KIWA 211731Z 2118/2218 17008KT P6SM SKC FM211900 27008KT P6SM SKC FM220600 12007KT P6SM FEW250